Flight Track Log - Related Links

Times and Time Zones

All times are in EDT time to prevent confusion due to time zone crossing. See the EJA328 flight status page for this flight to view local times or setup timezone preferences in your user account.

Time Position Orientation Groundspeed Altitude Reporting Facility
EDT Latitude Longitude Course Direction KTS MPH feet Rate Location/Type
Thu 09:58:22 AM 30.5667 -91.1081 84° East 204 235 3,200  Level Houston Center
Thu 09:59:25 AM 30.5639 -91.0278 92° East 257 296 7,000 3,888 Climbing Houston Center
Thu 10:00:27 AM 30.5503 -90.9172 98° East 294 338 11,300 3,629 Climbing Houston Center
Thu 10:01:29 AM 30.5600 -90.8150 84° East 323 372 14,500 3,097 Climbing Houston Center
Thu 10:02:31 AM 30.5692 -90.7056 84° East 338 389 17,700 2,710 Climbing Houston Center
Thu 10:03:00 AM 30.5060 -90.8948 84° East  Level FlightAware Approximate
Thu 10:03:33 AM 30.5783 -90.5906 85° East 358 412 20,100  Level Houston Center
Thu 10:04:35 AM 30.5867 -90.4650 86° East 388 447 22,400 2,208 Climbing Houston Center
Thu 10:05:38 AM 30.5967 -90.3347 85° East 400 460 24,700 2,160 Climbing Houston Center
Thu 10:06:40 AM 30.6089 -90.1739 85° East 417 480 26,900 1,113 Climbing Houston Center
Thu 10:07:42 AM 30.6197 -90.0217 85° East 476 548 27,000 48 Climbing Houston Center
Thu 10:08:44 AM 30.6322 -89.8561 85° East 507 583 27,000  Level Houston Center
Thu 10:09:46 AM 30.6450 -89.6806 85° East 531 611 27,000  Level Houston Center
Thu 10:10:48 AM 30.6572 -89.5089 85° East 532 612 27,000  Level Houston Center
Thu 10:11:51 AM 30.6678 -89.3381 86° East 531 611 27,000  Level Houston Center
Thu 10:12:53 AM 30.6794 -89.1681 85° East 531 611 27,000  Level Houston Center
Thu 10:13:55 AM 30.6931 -88.9642 86° East 529 609 27,000  Level Houston Center
Thu 10:14:57 AM 30.7025 -88.8158 86° East 528 608 27,000  Level Houston Center
Thu 10:15:59 AM 30.7144 -88.6253 86° East 528 608 27,000  Level Houston Center
Thu 10:17:01 AM 30.7244 -88.4558 86° East 528 608 27,000  Level Houston Center
Thu 10:18:04 AM 30.7344 -88.2864 86° East 528 608 27,000  Level Houston Center
Thu 10:19:06 AM 30.7450 -88.1161 86° East 528 608 27,000  Level Houston Center
Thu 10:20:08 AM 30.7558 -87.9125 86° East 528 608 27,000 -871 Level Houston Center
Thu 10:21:10 AM 30.7658 -87.7414 86° East 529 609 25,200 -1,210 Descending Houston Center
Thu 10:22:12 AM 30.7764 -87.5739 86° East 527 606 24,500 -1,113 Descending Houston Center
Thu 10:23:14 AM 30.7858 -87.4136 86° East 514 592 22,900 -1,680 Descending Houston Center
Thu 10:24:17 AM 30.7953 -87.2536 86° East 505 581 21,000 -1,872 Descending Houston Center
Thu 10:25:19 AM 30.8044 -87.1003 86° East 492 566 19,000 -2,032 Descending Houston Center
Thu 10:26:21 AM 30.8142 -86.9219 86° East 474 545 16,800 -1,887 Descending Houston Center
Thu 10:27:23 AM 30.8211 -86.7786 87° East 459 528 15,100 -1,210 Descending Houston Center
Thu 10:28:25 AM 30.8292 -86.6397 86° East 445 512 14,300 -1,355 Descending Houston Center
Thu 10:29:27 AM 30.8278 -86.5067 91° East 428 493 12,300 -2,064 Descending Houston Center
Thu 10:30:30 AM 30.8197 -86.3889 95° East 390 449 10,000 -1,950 Descending Houston Center
Thu 10:31:27 AM 30.8039 -86.2833 100° East 342 394 8,400 -1,538 Descending Jacksonville Center
Thu 10:32:27 AM 30.7686 -86.1975 116° Southeast 296 341 7,000 1,300 Descending Jacksonville Center
Thu 10:33:27 AM 30.7433 -86.1169 110° East 296 341 11,000 2,000 Climbing Jacksonville Center
Thu 10:34:27 AM 30.7144 -86.0242 110° East 296 341 11,000  Level Jacksonville Center
Thu 10:35:27 AM 30.6853 -85.9336 111° Southeast 296 341 11,000  Level Jacksonville Center
Thu 10:36:27 AM 30.6561 -85.8411 110° East 296 341 11,000  Level Jacksonville Center

Login

Don't have an account? Register now (free) for customized features, flight alerts, and more!